createdAt,value
2023-09-11T00:00:05.999Z,31.90
2023-09-11T00:01:05.990Z,30.10
2023-09-11T00:02:05.986Z,32.10
2023-09-11T00:03:06.068Z,24.90
2023-09-11T00:04:06.079Z,27.70
2023-09-11T00:05:05.941Z,29.00
2023-09-11T00:06:06.334Z,32.30
2023-09-11T00:07:05.911Z,24.60
2023-09-11T00:08:05.946Z,28.10
2023-09-11T00:09:05.900Z,28.00
2023-09-11T00:10:05.929Z,28.20
2023-09-11T00:11:05.883Z,30.70
2023-09-11T00:12:05.886Z,31.10
2023-09-11T00:13:05.882Z,32.70
2023-09-11T00:14:05.881Z,27.40
2023-09-11T00:15:05.846Z,24.10
2023-09-11T00:16:05.877Z,25.50
2023-09-11T00:17:05.824Z,31.50
2023-09-11T00:18:05.914Z,30.20
2023-09-11T00:19:05.852Z,29.40
2023-09-11T00:20:05.803Z,26.00
2023-09-11T00:21:05.790Z,28.50
2023-09-11T00:22:05.807Z,34.20
2023-09-11T00:23:05.770Z,33.10
2023-09-11T00:24:05.777Z,31.80
2023-09-11T00:25:05.787Z,35.60
2023-09-11T00:26:05.766Z,37.10
2023-09-11T00:27:05.747Z,30.00
2023-09-11T00:28:05.737Z,32.20
2023-09-11T00:29:05.734Z,31.50
2023-09-11T00:30:05.728Z,22.10
2023-09-11T00:31:05.741Z,30.10
2023-09-11T00:32:05.709Z,32.40
2023-09-11T00:33:05.777Z,35.10
2023-09-11T00:34:05.703Z,27.10
2023-09-11T00:35:05.671Z,28.50
2023-09-11T00:36:05.677Z,31.00
2023-09-11T00:37:05.654Z,33.20
2023-09-11T00:38:05.652Z,27.20
2023-09-11T00:39:05.645Z,35.40
2023-09-11T00:40:05.636Z,31.50
2023-09-11T00:41:05.730Z,33.70
2023-09-11T00:42:05.676Z,30.50
2023-09-11T00:43:05.619Z,26.10
2023-09-11T00:44:05.600Z,30.00
2023-09-11T00:45:05.575Z,28.30
2023-09-11T00:46:05.622Z,25.60
2023-09-11T00:47:05.569Z,30.30
2023-09-11T00:48:05.703Z,28.40
2023-09-11T00:49:05.564Z,26.10
2023-09-11T00:50:05.557Z,30.40
2023-09-11T00:51:05.543Z,28.70
2023-09-11T00:52:05.529Z,32.10
2023-09-11T00:53:05.517Z,28.20
2023-09-11T00:54:05.530Z,32.70
2023-09-11T00:55:05.511Z,28.50
2023-09-11T00:56:05.499Z,30.00
2023-09-11T00:57:05.497Z,28.60
2023-09-11T00:58:05.500Z,35.10
2023-09-11T00:59:05.465Z,28.10
2023-09-11T01:00:05.473Z,27.30
2023-09-11T01:01:05.477Z,27.50
2023-09-11T01:02:05.537Z,29.30
2023-09-11T01:03:05.492Z,29.90
2023-09-11T01:04:05.447Z,29.90
2023-09-11T01:05:05.417Z,28.20
2023-09-11T01:06:05.436Z,28.90
2023-09-11T01:07:05.407Z,31.60
2023-09-11T01:08:05.424Z,28.80
2023-09-11T01:09:05.394Z,32.40
2023-09-11T01:10:05.428Z,27.90
2023-09-11T01:11:05.370Z,27.00
2023-09-11T01:12:05.399Z,25.00
2023-09-11T01:13:05.354Z,25.60
2023-09-11T01:14:05.391Z,31.70
2023-09-11T01:15:05.360Z,29.80
2023-09-11T01:16:05.401Z,29.10
2023-09-11T01:17:05.345Z,36.60
2023-09-11T01:18:05.396Z,32.90
2023-09-11T01:19:05.306Z,33.30
2023-09-11T01:20:05.329Z,27.50
2023-09-11T01:21:05.288Z,28.90
2023-09-11T01:22:05.319Z,30.90
2023-09-11T01:23:05.283Z,27.80
2023-09-11T01:24:05.302Z,31.10
2023-09-11T01:25:05.285Z,30.00
2023-09-11T01:26:05.279Z,30.60
2023-09-11T01:27:05.242Z,33.60
2023-09-11T01:28:05.260Z,32.50
2023-09-11T01:29:05.240Z,32.40
2023-09-11T01:30:05.226Z,29.40
2023-09-11T01:31:05.328Z,28.70
2023-09-11T01:32:05.240Z,33.90
2023-09-11T01:33:05.346Z,36.40
2023-09-11T01:34:05.210Z,36.20
2023-09-11T01:35:05.206Z,30.20
2023-09-11T01:36:05.188Z,33.80
2023-09-11T01:37:05.181Z,29.30
2023-09-11T01:38:05.177Z,30.80
2023-09-11T01:39:05.176Z,27.80
2023-09-11T01:40:05.178Z,30.70
2023-09-11T01:41:05.138Z,33.90
2023-09-11T01:42:05.142Z,33.00
2023-09-11T01:43:05.118Z,30.70
2023-09-11T01:44:05.129Z,38.50
2023-09-11T01:45:05.112Z,31.00
2023-09-11T01:46:05.143Z,35.60
2023-09-11T01:47:05.096Z,27.80
2023-09-11T01:48:05.191Z,30.70
2023-09-11T01:49:05.069Z,26.80
2023-09-11T01:50:05.089Z,34.40
2023-09-11T01:51:05.068Z,28.70
2023-09-11T01:52:05.049Z,32.30
2023-09-11T01:53:05.030Z,27.50
2023-09-11T01:54:05.029Z,29.00
2023-09-11T01:55:05.018Z,26.80
2023-09-11T01:56:05.028Z,33.00
2023-09-11T01:57:05.017Z,34.20
2023-09-11T01:58:05.009Z,29.30
2023-09-11T01:59:04.977Z,32.00
2023-09-11T02:00:05.001Z,28.50
2023-09-11T02:01:04.969Z,35.90
2023-09-11T02:02:04.969Z,29.30
2023-09-11T02:03:05.122Z,28.50
2023-09-11T02:04:05.058Z,35.50
2023-09-11T02:05:04.932Z,33.80
2023-09-11T02:06:04.950Z,27.20
2023-09-11T02:07:04.907Z,29.10
2023-09-11T02:08:04.914Z,28.30
2023-09-11T02:09:04.908Z,31.60
2023-09-11T02:10:04.906Z,29.40
2023-09-11T02:11:04.887Z,31.50
2023-09-11T02:12:04.890Z,30.20
2023-09-11T02:13:04.893Z,33.60
2023-09-11T02:14:04.892Z,28.90
2023-09-11T02:15:04.847Z,31.10
2023-09-11T02:16:04.884Z,28.90
2023-09-11T02:17:04.846Z,29.30
2023-09-11T02:18:04.984Z,35.10
2023-09-11T02:19:04.829Z,33.50
2023-09-11T02:20:04.812Z,32.30
2023-09-11T02:21:04.791Z,35.90
2023-09-11T02:22:04.799Z,35.20
2023-09-11T02:23:04.779Z,34.00
2023-09-11T02:24:04.805Z,30.80
2023-09-11T02:25:04.761Z,27.30
2023-09-11T02:26:04.773Z,30.60
2023-09-11T02:27:04.773Z,33.30
2023-09-11T02:28:04.754Z,49.90
2023-09-11T02:29:04.742Z,31.10
2023-09-11T02:30:04.738Z,56.10
2023-09-11T02:31:04.721Z,46.30
2023-09-11T02:32:04.765Z,39.30
2023-09-11T02:33:04.757Z,42.50
2023-09-11T02:34:04.716Z,40.20
2023-09-11T02:35:11.761Z,33.90
2023-09-11T02:36:04.685Z,35.60
2023-09-11T02:37:04.663Z,41.60
2023-09-11T02:38:04.689Z,61.30
2023-09-11T02:39:04.680Z,121.00
2023-09-11T02:40:04.670Z,127.90
2023-09-11T02:41:09.547Z,69.50
2023-09-11T02:42:05.673Z,74.50
2023-09-11T02:43:04.609Z,70.10
2023-09-11T02:44:04.623Z,90.40
2023-09-11T02:45:04.597Z,99.70
2023-09-11T02:46:04.691Z,76.20
2023-09-11T02:47:04.577Z,66.10
2023-09-11T02:48:04.620Z,83.60
2023-09-11T02:49:04.565Z,101.10
2023-09-11T02:50:04.572Z,95.60
2023-09-11T02:51:04.551Z,86.00
2023-09-11T02:52:04.572Z,62.50
2023-09-11T02:53:04.530Z,64.30
2023-09-11T02:54:04.551Z,74.70
2023-09-11T02:55:04.530Z,69.90
2023-09-11T02:56:04.522Z,78.80
2023-09-11T02:57:04.501Z,92.70
2023-09-11T02:58:04.537Z,94.60
2023-09-11T02:59:04.480Z,153.60
2023-09-11T03:00:04.516Z,137.50
2023-09-11T03:01:04.609Z,152.10
2023-09-11T03:02:04.470Z,147.00
2023-09-11T03:03:04.490Z,125.20
2023-09-11T03:04:04.461Z,149.00
2023-09-11T03:05:04.472Z,149.80
2023-09-11T03:06:04.503Z,167.80
2023-09-11T03:07:04.434Z,126.70
2023-09-11T03:08:04.420Z,137.10
2023-09-11T03:09:04.482Z,103.20
2023-09-11T03:10:04.419Z,98.10
2023-09-11T03:11:04.393Z,108.80
2023-09-11T03:12:04.410Z,183.00
2023-09-11T03:13:04.364Z,136.70
2023-09-11T03:14:04.378Z,251.90
2023-09-11T03:15:04.352Z,200.20
2023-09-11T03:16:04.419Z,114.30
2023-09-11T03:17:04.342Z,137.40
2023-09-11T03:18:04.464Z,128.10
2023-09-11T03:19:04.331Z,94.70
2023-09-11T03:20:04.331Z,112.30
2023-09-11T03:21:04.294Z,149.80
2023-09-11T03:22:04.296Z,173.70
2023-09-11T03:23:04.274Z,130.00
2023-09-11T03:24:04.345Z,230.80
2023-09-11T03:25:04.249Z,146.10
2023-09-11T03:26:04.276Z,170.60
2023-09-11T03:27:04.250Z,183.30
2023-09-11T03:28:04.249Z,162.60
2023-09-11T03:29:04.255Z,246.60
2023-09-11T03:30:04.301Z,178.20
2023-09-11T03:31:04.227Z,208.70
2023-09-11T03:32:04.245Z,215.00
2023-09-11T03:33:04.339Z,206.10
2023-09-11T03:34:04.386Z,287.50
2023-09-11T03:35:04.191Z,182.10
2023-09-11T03:36:04.230Z,264.70
2023-09-11T03:37:04.181Z,198.00
2023-09-11T03:38:04.165Z,190.80
2023-09-11T03:39:04.196Z,234.80
2023-09-11T03:40:04.143Z,187.30
2023-09-11T03:41:04.180Z,148.10
2023-09-11T03:42:04.173Z,130.10
2023-09-11T03:43:04.107Z,124.80
2023-09-11T03:44:04.117Z,124.30
2023-09-11T03:45:04.148Z,177.70
2023-09-11T03:46:04.102Z,152.50
2023-09-11T03:47:04.098Z,176.80
2023-09-11T03:48:04.216Z,128.00
2023-09-11T03:49:04.086Z,138.70
2023-09-11T03:50:04.075Z,159.70
2023-09-11T03:51:04.108Z,142.50
2023-09-11T03:52:04.041Z,106.10
2023-09-11T03:53:04.051Z,128.20
2023-09-11T03:54:04.051Z,134.60
2023-09-11T03:55:04.006Z,204.10
2023-09-11T03:56:04.016Z,324.30
2023-09-11T03:57:04.179Z,217.00
2023-09-11T03:58:03.992Z,158.40
2023-09-11T03:59:03.969Z,212.10
2023-09-11T04:00:03.988Z,193.30
2023-09-11T04:01:03.996Z,177.80
2023-09-11T04:02:03.989Z,147.60
2023-09-11T04:03:04.083Z,128.30
2023-09-11T04:04:04.053Z,88.10
2023-09-11T04:05:03.928Z,211.10
2023-09-11T04:06:03.981Z,133.20
2023-09-11T04:07:03.910Z,123.00
2023-09-11T04:08:03.979Z,138.90
2023-09-11T04:09:03.927Z,237.30
2023-09-11T04:10:03.904Z,154.70
2023-09-11T04:11:03.897Z,87.50
2023-09-11T04:12:03.919Z,89.20
2023-09-11T04:13:03.877Z,106.50
2023-09-11T04:14:03.910Z,89.50
2023-09-11T04:15:03.918Z,82.70
2023-09-11T04:16:03.872Z,111.70
2023-09-11T04:17:03.885Z,88.20
2023-09-11T04:18:03.915Z,120.80
2023-09-11T04:19:04.984Z,89.10
2023-09-11T04:20:03.851Z,84.50
2023-09-11T04:21:03.829Z,76.90
2023-09-11T04:22:03.825Z,110.40
2023-09-11T04:23:03.792Z,93.60
2023-09-11T04:24:03.819Z,99.70
2023-09-11T04:25:03.786Z,155.70
2023-09-11T04:26:03.820Z,104.60
2023-09-11T04:27:03.827Z,129.40
2023-09-11T04:28:03.784Z,109.80
2023-09-11T04:29:03.749Z,113.40
2023-09-11T04:30:03.879Z,86.50
2023-09-11T04:31:03.805Z,68.10
2023-09-11T04:32:03.768Z,68.70
2023-09-11T04:33:03.794Z,70.80
2023-09-11T04:34:03.729Z,146.10
2023-09-11T04:35:04.627Z,217.90
2023-09-11T04:36:03.718Z,243.00
2023-09-11T04:37:03.690Z,81.90
2023-09-11T04:38:03.700Z,106.50
2023-09-11T04:39:03.704Z,92.20
2023-09-11T04:40:03.684Z,87.90
2023-09-11T04:41:03.686Z,66.30
2023-09-11T04:42:03.714Z,102.50
2023-09-11T04:43:03.651Z,104.50
2023-09-11T04:44:03.648Z,103.60
2023-09-11T04:45:03.645Z,101.90
2023-09-11T04:46:03.683Z,107.10
2023-09-11T04:47:03.635Z,100.40
2023-09-11T04:48:03.754Z,110.50
2023-09-11T04:49:03.616Z,93.90
2023-09-11T04:50:03.613Z,116.00
2023-09-11T04:51:03.598Z,98.10
2023-09-11T04:52:03.608Z,88.70
2023-09-11T04:53:03.734Z,93.20
2023-09-11T04:54:03.612Z,54.30
2023-09-11T04:55:03.569Z,91.60
2023-09-11T04:56:03.583Z,100.60
2023-09-11T04:57:03.572Z,76.40
2023-09-11T04:58:03.561Z,62.40
2023-09-11T04:59:03.572Z,69.50
2023-09-11T05:00:03.562Z,68.30
2023-09-11T05:01:03.502Z,68.20
2023-09-11T05:02:03.575Z,55.50
2023-09-11T05:03:03.564Z,59.70
2023-09-11T05:04:03.722Z,73.60
2023-09-11T05:05:03.487Z,100.90
2023-09-11T05:06:03.543Z,81.70
2023-09-11T05:07:03.467Z,121.60
2023-09-11T05:08:03.499Z,78.50
2023-09-11T05:09:11.986Z,121.40
2023-09-11T05:10:04.454Z,69.10
2023-09-11T05:11:03.431Z,76.20
2023-09-11T05:12:03.498Z,60.10
2023-09-11T05:13:03.415Z,118.80
2023-09-11T05:14:03.436Z,89.60
2023-09-11T05:15:03.435Z,105.70
2023-09-11T05:16:03.453Z,146.70
2023-09-11T05:17:03.386Z,75.10
2023-09-11T05:18:03.529Z,81.50
2023-09-11T05:19:03.376Z,61.50
2023-09-11T05:20:03.391Z,83.40
2023-09-11T05:21:03.397Z,71.20
2023-09-11T05:22:03.373Z,170.10
2023-09-11T05:23:03.333Z,112.00
2023-09-11T05:24:03.375Z,147.50
2023-09-11T05:25:03.317Z,183.90
2023-09-11T05:26:03.344Z,151.90
2023-09-11T05:27:03.361Z,255.40
2023-09-11T05:28:03.304Z,157.10
2023-09-11T05:29:03.313Z,275.90
2023-09-11T05:30:03.301Z,176.30
2023-09-11T05:31:03.278Z,202.50
2023-09-11T05:32:03.350Z,405.40
2023-09-11T05:33:03.317Z,146.50
2023-09-11T05:34:03.261Z,79.80
2023-09-11T05:35:03.260Z,162.90
2023-09-11T05:36:03.351Z,117.60
2023-09-11T05:37:03.224Z,122.50
2023-09-11T05:38:03.245Z,86.10
2023-09-11T05:39:03.255Z,440.40
2023-09-11T05:40:03.222Z,225.90
2023-09-11T05:41:03.192Z,194.00
2023-09-11T05:42:03.234Z,144.00
2023-09-11T05:43:03.271Z,92.60
2023-09-11T05:44:03.181Z,223.50
2023-09-11T05:45:03.171Z,209.70
2023-09-11T05:46:03.224Z,346.40
2023-09-11T05:47:03.165Z,246.50
2023-09-11T05:48:03.219Z,82.50
2023-09-11T05:49:03.151Z,79.70
2023-09-11T05:50:03.143Z,63.50
2023-09-11T05:51:03.130Z,172.80
2023-09-11T05:52:03.137Z,112.10
2023-09-11T05:53:03.104Z,81.50
2023-09-11T05:54:03.155Z,100.50
2023-09-11T05:55:03.077Z,152.70
2023-09-11T05:56:03.095Z,66.60
2023-09-11T05:57:03.106Z,65.50
2023-09-11T05:58:03.076Z,81.70
2023-09-11T05:59:03.087Z,139.40
2023-09-11T06:00:03.098Z,71.30
2023-09-11T06:01:03.090Z,87.50
2023-09-11T06:02:03.034Z,93.30
2023-09-11T06:03:03.055Z,108.10
2023-09-11T06:04:03.115Z,118.50
2023-09-11T06:05:03.016Z,122.60
2023-09-11T06:06:03.077Z,100.60
2023-09-11T06:07:02.983Z,70.70
2023-09-11T06:08:03.012Z,86.60
2023-09-11T06:09:02.993Z,116.30
2023-09-11T06:10:02.975Z,70.80
2023-09-11T06:11:02.971Z,71.40
2023-09-11T06:12:03.011Z,74.90
2023-09-11T06:13:02.933Z,75.80
2023-09-11T06:14:02.932Z,58.80
2023-09-11T06:15:02.959Z,211.90
2023-09-11T06:16:02.934Z,167.90
2023-09-11T06:17:02.890Z,315.50
2023-09-11T06:18:02.960Z,93.00
2023-09-11T06:19:03.006Z,130.00
2023-09-11T06:20:03.006Z,77.20
2023-09-11T06:21:02.985Z,101.50
2023-09-11T06:22:02.873Z,75.60
2023-09-11T06:23:02.847Z,153.60
2023-09-11T06:24:02.908Z,137.50
2023-09-11T06:25:02.844Z,395.60
2023-09-11T06:26:02.844Z,119.00
2023-09-11T06:27:03.028Z,355.70
2023-09-11T06:28:02.819Z,251.80
2023-09-11T06:29:02.804Z,203.80
2023-09-11T06:30:02.904Z,230.30
2023-09-11T06:31:02.814Z,155.90
2023-09-11T06:32:02.786Z,181.40
2023-09-11T06:33:02.833Z,180.00
2023-09-11T06:34:02.775Z,249.70
2023-09-11T06:35:02.828Z,152.80
2023-09-11T06:36:02.874Z,142.40
2023-09-11T06:37:02.731Z,96.60
2023-09-11T06:38:02.754Z,115.50
2023-09-11T06:39:02.755Z,116.30
2023-09-11T06:40:02.716Z,113.10
2023-09-11T06:41:02.704Z,117.40
2023-09-11T06:42:02.763Z,97.50
2023-09-11T06:43:02.701Z,107.40
2023-09-11T06:44:02.716Z,116.50
2023-09-11T06:45:02.694Z,370.50
2023-09-11T06:46:02.723Z,243.70
2023-09-11T06:47:02.651Z,68.80
2023-09-11T06:48:02.756Z,156.20
2023-09-11T06:49:02.703Z,94.70
2023-09-11T06:50:02.649Z,62.30
2023-09-11T06:51:02.672Z,50.50
2023-09-11T06:52:02.663Z,76.50
2023-09-11T06:53:02.609Z,53.30
2023-09-11T06:54:02.724Z,48.90
2023-09-11T06:55:02.602Z,36.70
2023-09-11T06:56:02.604Z,23.40
2023-09-11T06:57:02.634Z,34.10
2023-09-11T06:58:02.603Z,16.30
2023-09-11T06:59:02.555Z,13.10
2023-09-11T07:00:02.599Z,13.70
2023-09-11T07:01:02.612Z,12.30
2023-09-11T07:02:02.550Z,11.80
2023-09-11T07:03:02.636Z,15.20
2023-09-11T07:04:02.598Z,10.90
2023-09-11T07:05:02.518Z,11.10
2023-09-11T07:06:02.579Z,10.90
2023-09-11T07:07:02.555Z,12.00
2023-09-11T07:08:02.521Z,11.80
2023-09-11T07:09:02.523Z,12.40
2023-09-11T07:10:02.491Z,10.50
2023-09-11T07:11:02.468Z,9.40
2023-09-11T07:12:02.546Z,10.70
2023-09-11T07:13:02.466Z,12.20
2023-09-11T07:14:02.458Z,12.40
2023-09-11T07:15:02.451Z,16.90
2023-09-11T07:16:02.456Z,12.40
2023-09-11T07:17:02.451Z,12.00
2023-09-11T07:18:02.562Z,15.40
2023-09-11T07:19:02.501Z,12.30
2023-09-11T07:20:02.418Z,15.70
2023-09-11T07:21:02.531Z,14.60
2023-09-11T07:22:02.416Z,13.20
2023-09-11T07:23:02.417Z,9.90
2023-09-11T07:24:02.423Z,9.00
2023-09-11T07:25:02.409Z,12.90
2023-09-11T07:26:02.378Z,11.20
2023-09-11T07:27:02.379Z,9.90
2023-09-11T07:28:02.360Z,9.60
2023-09-11T07:29:02.359Z,10.40
2023-09-11T07:30:02.389Z,9.70
2023-09-11T07:31:02.354Z,8.10
2023-09-11T07:32:02.336Z,8.20
2023-09-11T07:33:02.390Z,7.90
2023-09-11T07:34:02.324Z,9.70
2023-09-11T07:35:02.332Z,8.80
2023-09-11T07:36:02.354Z,8.20
2023-09-11T07:37:02.284Z,12.90
2023-09-11T07:38:02.292Z,11.00
2023-09-11T07:39:02.418Z,10.50
2023-09-11T07:40:02.347Z,11.60
2023-09-11T07:41:02.285Z,10.10
2023-09-11T07:42:02.331Z,10.60
2023-09-11T07:43:02.266Z,10.50
2023-09-11T07:44:02.253Z,11.50
2023-09-11T07:45:02.322Z,10.50
2023-09-11T07:46:02.239Z,14.20
2023-09-11T07:47:02.301Z,12.00
2023-09-11T07:48:02.311Z,10.00
2023-09-11T07:49:02.299Z,9.90
2023-09-11T07:50:02.233Z,13.10
2023-09-11T07:51:02.255Z,13.30
2023-09-11T07:52:02.222Z,13.10
2023-09-11T07:53:02.175Z,10.40
2023-09-11T07:54:02.219Z,11.30
2023-09-11T07:55:02.184Z,12.10
2023-09-11T07:56:02.348Z,10.80
2023-09-11T07:57:02.238Z,12.90
2023-09-11T07:58:02.164Z,13.90
2023-09-11T07:59:02.152Z,13.90
2023-09-11T08:00:02.231Z,15.50
2023-09-11T08:01:02.161Z,10.70
2023-09-11T08:02:02.147Z,10.60
2023-09-11T08:03:02.207Z,13.70
2023-09-11T08:04:02.248Z,11.90
2023-09-11T08:05:02.093Z,12.20
2023-09-11T08:06:02.132Z,12.50
2023-09-11T08:07:02.079Z,14.60
2023-09-11T08:08:02.117Z,13.10
2023-09-11T08:09:02.090Z,12.30
2023-09-11T08:10:02.076Z,12.00
2023-09-11T08:11:02.050Z,11.20
2023-09-11T08:12:02.163Z,15.50
2023-09-11T08:13:02.039Z,11.40
2023-09-11T08:14:02.060Z,12.80
2023-09-11T08:15:02.340Z,11.30
2023-09-11T08:16:02.036Z,11.50
2023-09-11T08:17:02.087Z,11.20
2023-09-11T08:18:02.108Z,13.00
2023-09-11T08:19:02.028Z,11.70
2023-09-11T08:20:02.061Z,11.90
2023-09-11T08:21:02.016Z,11.70
2023-09-11T08:22:02.012Z,11.80
2023-09-11T08:23:02.004Z,9.00
2023-09-11T08:24:02.038Z,10.60
2023-09-11T08:25:01.959Z,10.60
2023-09-11T08:26:01.993Z,10.80
2023-09-11T08:27:02.004Z,12.50
2023-09-11T08:28:01.959Z,10.90
2023-09-11T08:29:01.932Z,11.10
2023-09-11T08:30:01.995Z,14.70
2023-09-11T08:31:02.001Z,10.10
2023-09-11T08:32:01.949Z,11.00
2023-09-11T08:33:02.003Z,13.40
2023-09-11T08:34:02.050Z,14.20
2023-09-11T08:35:01.933Z,13.70
2023-09-11T08:36:08.958Z,15.20
2023-09-11T08:37:01.872Z,13.40
2023-09-11T08:38:01.889Z,12.50
2023-09-11T08:39:01.914Z,15.30
2023-09-11T08:40:01.929Z,12.90
2023-09-11T08:41:01.847Z,17.70
2023-09-11T08:42:01.969Z,12.30
2023-09-11T08:43:01.864Z,10.50
2023-09-11T08:44:01.869Z,11.80
2023-09-11T08:45:01.877Z,12.00
2023-09-11T08:46:01.923Z,15.30
2023-09-11T08:47:01.867Z,11.50
2023-09-11T08:48:01.928Z,13.50
2023-09-11T08:49:01.796Z,12.90
2023-09-11T08:50:01.791Z,13.40
2023-09-11T08:51:01.851Z,13.70
2023-09-11T08:52:01.805Z,11.90
2023-09-11T08:53:01.770Z,13.40
2023-09-11T08:54:01.837Z,11.30
2023-09-11T08:55:01.759Z,14.00
2023-09-11T08:56:01.829Z,12.90
2023-09-11T08:57:01.864Z,14.00
2023-09-11T08:58:01.755Z,14.40
2023-09-11T08:59:01.765Z,12.60
2023-09-11T09:00:01.777Z,13.10
2023-09-11T09:01:02.842Z,13.70
2023-09-11T09:02:02.753Z,17.50
2023-09-11T09:03:01.786Z,12.10
2023-09-11T09:04:01.808Z,16.10
2023-09-11T09:05:01.701Z,12.70
2023-09-11T09:06:01.761Z,14.00
2023-09-11T09:07:01.676Z,17.40
2023-09-11T09:08:01.704Z,13.70
2023-09-11T09:09:01.691Z,19.00
2023-09-11T09:10:01.677Z,14.40
2023-09-11T09:11:01.668Z,11.50
2023-09-11T09:12:01.730Z,13.00
2023-09-11T09:13:01.651Z,16.70
2023-09-11T09:14:01.659Z,13.40
2023-09-11T09:15:01.699Z,14.70
2023-09-11T09:16:01.651Z,16.80
2023-09-11T09:17:01.611Z,11.90
2023-09-11T09:18:01.700Z,15.90
2023-09-11T09:19:01.629Z,13.30
2023-09-11T09:20:01.624Z,12.60
2023-09-11T09:21:02.563Z,17.60
2023-09-11T09:22:01.583Z,18.10
2023-09-11T09:23:01.587Z,13.50
2023-09-11T09:24:01.618Z,11.60
2023-09-11T09:25:01.581Z,14.30
2023-09-11T09:26:01.564Z,16.30
2023-09-11T09:27:01.617Z,12.80
2023-09-11T09:28:01.608Z,12.60
2023-09-11T09:29:01.529Z,16.60
2023-09-11T09:30:01.591Z,14.00
2023-09-11T09:31:01.530Z,15.30
2023-09-11T09:32:01.668Z,11.30
2023-09-11T09:33:01.559Z,11.90
2023-09-11T09:34:01.582Z,12.30
2023-09-11T09:35:01.491Z,15.40
2023-09-11T09:36:01.560Z,15.00
2023-09-11T09:37:01.497Z,14.10
2023-09-11T09:38:01.489Z,20.00
2023-09-11T09:39:01.490Z,13.30
2023-09-11T09:40:01.480Z,29.20
2023-09-11T09:41:01.482Z,13.50
2023-09-11T09:42:01.693Z,14.00
2023-09-11T09:43:01.444Z,13.80
2023-09-11T09:44:01.465Z,15.60
2023-09-11T09:45:01.453Z,14.80
2023-09-11T09:46:01.488Z,13.40
2023-09-11T09:47:01.438Z,14.00
2023-09-11T09:48:01.466Z,13.20
2023-09-11T09:49:01.587Z,15.50
2023-09-11T09:50:01.496Z,17.50
2023-09-11T09:51:01.497Z,21.60
2023-09-11T09:52:01.435Z,18.80
2023-09-11T09:53:01.427Z,16.90
2023-09-11T09:54:01.416Z,17.70
2023-09-11T09:55:01.398Z,14.20
2023-09-11T09:56:01.370Z,16.00
2023-09-11T09:57:01.402Z,14.20
2023-09-11T09:58:01.386Z,15.10
2023-09-11T09:59:01.335Z,16.60
2023-09-11T10:00:01.440Z,16.10
2023-09-11T10:01:01.342Z,12.80
2023-09-11T10:02:01.378Z,12.60
2023-09-11T10:03:01.427Z,15.00
2023-09-11T10:04:01.385Z,15.10
2023-09-11T10:05:01.385Z,16.30
2023-09-11T10:06:01.413Z,18.90
2023-09-11T10:07:01.284Z,14.60
2023-09-11T10:08:01.290Z,14.70
2023-09-11T10:09:01.302Z,18.70
2023-09-11T10:10:01.284Z,15.50
2023-09-11T10:11:01.263Z,15.50
2023-09-11T10:12:01.304Z,14.30
2023-09-11T10:13:01.270Z,16.10
2023-09-11T10:14:01.272Z,13.80
2023-09-11T10:15:01.285Z,13.40
2023-09-11T10:16:01.263Z,15.70
2023-09-11T10:17:01.230Z,13.20
2023-09-11T10:18:01.316Z,15.50
2023-09-11T10:19:01.226Z,13.20
2023-09-11T10:20:01.242Z,15.80
2023-09-11T10:21:01.231Z,19.10
2023-09-11T10:22:01.236Z,15.70
2023-09-11T10:23:01.188Z,15.70
2023-09-11T10:24:01.242Z,14.80
2023-09-11T10:25:01.169Z,19.20
2023-09-11T10:26:01.192Z,17.20
2023-09-11T10:27:01.161Z,14.70
2023-09-11T10:28:01.180Z,16.40
2023-09-11T10:29:01.142Z,12.60
2023-09-11T10:30:01.176Z,17.60
2023-09-11T10:31:08.025Z,11.70
2023-09-11T10:32:02.189Z,13.80
2023-09-11T10:33:01.243Z,17.30
2023-09-11T10:34:01.269Z,14.10
2023-09-11T10:35:01.122Z,16.10
2023-09-11T10:36:01.144Z,17.10
2023-09-11T10:37:01.115Z,14.10
2023-09-11T10:38:01.128Z,18.00
2023-09-11T10:39:01.109Z,14.40
2023-09-11T10:40:01.076Z,15.40
2023-09-11T10:41:01.056Z,15.10
2023-09-11T10:42:01.097Z,13.70
2023-09-11T10:43:01.049Z,15.10
2023-09-11T10:44:01.071Z,14.60
2023-09-11T10:45:01.130Z,15.50
2023-09-11T10:46:01.044Z,14.00
2023-09-11T10:47:01.017Z,15.30
2023-09-11T10:48:01.086Z,15.00
2023-09-11T10:49:01.017Z,14.70
2023-09-11T10:50:01.038Z,14.40
2023-09-11T10:51:01.079Z,17.00
2023-09-11T10:52:01.031Z,14.10
2023-09-11T10:53:00.985Z,12.50
2023-09-11T10:54:01.020Z,15.80
2023-09-11T10:55:00.989Z,20.20
2023-09-11T10:56:00.983Z,15.80
2023-09-11T10:57:00.978Z,17.90
2023-09-11T10:58:00.968Z,13.40
2023-09-11T10:59:00.959Z,14.90
2023-09-11T11:00:01.015Z,14.50
2023-09-11T11:01:00.961Z,15.70
2023-09-11T11:02:00.962Z,21.30
2023-09-11T11:03:00.986Z,13.80
2023-09-11T11:04:00.973Z,13.40
2023-09-11T11:05:00.905Z,16.40
2023-09-11T11:06:00.974Z,13.90
2023-09-11T11:07:00.892Z,15.00
2023-09-11T11:08:00.917Z,15.40
2023-09-11T11:09:00.939Z,15.60
2023-09-11T11:10:01.021Z,13.20
2023-09-11T11:11:00.867Z,15.70
2023-09-11T11:12:00.921Z,12.80
2023-09-11T11:13:00.857Z,14.90
2023-09-11T11:14:00.893Z,15.70
2023-09-11T11:15:12.966Z,13.00
2023-09-11T11:16:01.968Z,14.80
2023-09-11T11:17:00.822Z,15.70
2023-09-11T11:18:00.887Z,15.30
2023-09-11T11:19:00.824Z,17.30
2023-09-11T11:20:00.837Z,14.60
2023-09-11T11:21:01.444Z,14.30
2023-09-11T11:22:00.797Z,12.90
2023-09-11T11:23:00.787Z,14.00
2023-09-11T11:24:00.835Z,14.30
2023-09-11T11:25:00.781Z,15.10
2023-09-11T11:26:00.812Z,16.70
2023-09-11T11:27:00.790Z,14.50
2023-09-11T11:28:00.793Z,14.20
2023-09-11T11:29:00.767Z,15.40
2023-09-11T11:30:00.800Z,16.20
2023-09-11T11:31:00.814Z,15.30
2023-09-11T11:32:00.737Z,17.30
2023-09-11T11:33:00.897Z,14.20
2023-09-11T11:34:00.908Z,17.40
2023-09-11T11:35:00.711Z,13.90
2023-09-11T11:36:00.744Z,23.60
2023-09-11T11:37:00.705Z,19.30
2023-09-11T11:38:00.733Z,17.10
2023-09-11T11:39:00.796Z,15.00
2023-09-11T11:40:00.701Z,14.00
2023-09-11T11:41:00.680Z,19.90
2023-09-11T11:42:00.737Z,14.80
2023-09-11T11:43:00.660Z,16.30
2023-09-11T11:44:00.675Z,21.70
2023-09-11T11:45:00.695Z,16.80
2023-09-11T11:46:00.659Z,15.30
2023-09-11T11:47:00.738Z,14.70
2023-09-11T11:48:00.741Z,17.40
2023-09-11T11:49:00.615Z,26.10
2023-09-11T11:50:00.634Z,20.10
2023-09-11T11:51:00.641Z,18.40
2023-09-11T11:52:00.618Z,18.80
2023-09-11T11:53:00.624Z,20.40
2023-09-11T11:54:00.686Z,21.10
2023-09-11T11:55:00.575Z,17.60
2023-09-11T11:56:00.617Z,24.60
2023-09-11T11:57:00.613Z,18.30
2023-09-11T11:58:00.569Z,19.60
2023-09-11T11:59:00.613Z,16.60
2023-09-11T12:00:00.628Z,19.00
2023-09-11T12:01:00.593Z,17.60
2023-09-11T12:02:00.574Z,20.80
2023-09-11T12:03:00.676Z,13.30
2023-09-11T12:04:03.177Z,17.50
2023-09-11T12:05:00.685Z,20.80
2023-09-11T12:06:00.557Z,17.10
2023-09-11T12:07:00.519Z,18.40
2023-09-11T12:08:00.506Z,13.40
2023-09-11T12:09:00.544Z,19.50
2023-09-11T12:10:00.535Z,21.70
2023-09-11T12:11:00.526Z,14.70
2023-09-11T12:12:00.520Z,15.60
2023-09-11T12:13:00.465Z,17.90
2023-09-11T12:14:00.472Z,18.00
2023-09-11T12:15:00.496Z,16.10
2023-09-11T12:16:00.494Z,14.70
2023-09-11T12:17:00.525Z,13.40
2023-09-11T12:18:00.474Z,14.50
2023-09-11T12:19:00.465Z,13.50
2023-09-11T12:20:00.427Z,16.60
2023-09-11T12:21:00.445Z,12.20
2023-09-11T12:22:00.410Z,18.30
2023-09-11T12:23:00.393Z,15.50
2023-09-11T12:24:00.446Z,15.10
2023-09-11T12:25:00.408Z,15.10
2023-09-11T12:26:00.389Z,15.30
2023-09-11T12:27:00.416Z,16.70
2023-09-11T12:28:00.387Z,14.70
2023-09-11T12:29:00.352Z,15.40
2023-09-11T12:30:00.423Z,17.80
2023-09-11T12:31:00.415Z,16.70
2023-09-11T12:32:00.383Z,27.50
2023-09-11T12:33:00.369Z,24.90
2023-09-11T12:34:00.401Z,14.60
2023-09-11T12:35:00.330Z,12.70
2023-09-11T12:36:00.417Z,17.60
2023-09-11T12:37:00.310Z,15.10
2023-09-11T12:38:00.350Z,15.20
2023-09-11T12:39:00.320Z,14.00
2023-09-11T12:40:00.319Z,17.50
2023-09-11T12:41:00.310Z,15.00
2023-09-11T12:42:00.374Z,15.10
2023-09-11T12:43:00.273Z,17.20
2023-09-11T12:44:00.338Z,14.20
2023-09-11T12:45:00.297Z,14.40
2023-09-11T12:46:00.261Z,20.60
2023-09-11T12:47:00.257Z,14.50